NZWN/WLG METAR and TAF weather

Enter ICAO airport designator
Station Type Date Time Source
NZWN METAR 2019/06/17 13:30 UTC NOAA

NZWN 171330Z AUTO 29006KT 260V320 9000 NCD 09/04 Q1016 NOSIG


Station Type Date Time Source
NZWN Decoded METAR 2019/06/17 13:30 UTC NOAA

Wellington Airport, New Zealand (NZWN) 41-20S 174-48E 8M
Jun 17, 2019 - 09:30 AM EDT / 2019.06.17 1330 UTC
Wind: from the WNW (290 degrees) at 7 MPH (6 KT) (direction variable):0
Visibility: 5 mile(s):0
Temperature: 48 F (9 C)
Dew Point: 39 F (4 C)
Relative Humidity: 70%
Pressure (altimeter): 30.00 in. Hg (1016 hPa)
ob: NZWN 171330Z AUTO 29006KT 260V320 9000 NCD 09/04 Q1016 NOSIG
cycle: 13

Station Type Date Time Source
NZWN TAF 2019/06/17 12:03 UTC NOAA

TAF NZWN 171101Z 1712/1812 18015KT 9999 SCT030
BECMG 1720/1722 19020G30KT
BECMG 1809/1811 18015KT

Example: see airport list